• Join FlightAware (Why Join?)
  • Login
  • US Flag 
09:58PM EDT


 

Airport Tracker/Info


-or-


 

Live Flight TrackerFlight Track Log ✈ DAL245 ✈ 30-Apr-2013 ✈ LIRF / FCO - KJFK

Flight Track Log - Related Links

Times and Time Zones

All times are in EDT time to prevent confusion due to time zone crossing. See the DAL245 flight status page for this flight to view local times or setup timezone preferences in your user account.

Time Position Orientation Groundspeed Altitude Reporting Facility
EDT Latitude Longitude Course Direction KTS MPH feet Rate Location/Type
06:57AM 41.8677 12.1080 309° West  Level Estimated
06:58AM 41.9307 11.9649 294° West  Level Estimated
06:59AM 41.9935 11.8215 301° West  Level Estimated
07:00AM 42.0562 11.6778 299° West  Level Estimated
07:01AM 42.1187 11.5339 298° West  Level Estimated
07:02AM 42.1689 11.3814 294° West  Level FlightAware Approximate
07:03AM 42.2189 11.2286 294° West  Level FlightAware Approximate
07:04AM 42.2809 11.0839 304° West  Level Estimated
07:05AM 42.3470 10.9423 302° West  Level FlightAware Approximate
07:06AM 42.4011 10.7810 302° West  Level FlightAware Approximate
07:07AM 42.4660 10.6383 302° West  Level FlightAware Approximate
07:08AM 42.5240 10.4901 297° West  Level FlightAware Approximate
07:08AM 41.7590 12.2480 297° West 149 171 2,100  Level FlightAware
07:09AM 42.5796 10.3390 297° West  Level FlightAware Approximate
07:09AM 41.7480 12.2320 227° Southwest 174 200 2,600  Level FlightAware
07:09AM 41.7480 12.2240 270° West 185 213 2,800 1,200 Climbing FlightAware
07:09AM 41.7610 12.1870 295° West 208 239 3,400 960 Climbing FlightAware
07:10AM 41.7640 12.1650 280° West 215 247 3,600 720 Climbing FlightAware
07:10AM 41.7780 12.1170 291° West 263 303 4,000 1,200 Climbing FlightAware
07:11AM 41.7930 12.0780 297° West 276 318 4,700 1,920 Climbing FlightAware
07:11AM 41.8050 12.0410 294° West 280 322 5,600 2,280 Climbing FlightAware
07:11AM 41.8210 11.9910 293° West 282 325 6,800 2,160 Climbing FlightAware
07:12AM 41.8360 11.9430 293° West 289 333 7,800 1,920 Climbing FlightAware
07:12AM 41.8410 11.9290 296° West 292 336 8,100 2,520 Climbing FlightAware
07:13AM 41.8610 11.8680 294° West 287 330 9,700 1,800 Climbing FlightAware
07:14AM 41.8910 11.7780 294° West 310 357 10,800 1,020 Climbing FlightAware
07:14AM 41.9130 11.7110 294° West 349 402 11,300 1,500 Climbing FlightAware
07:15AM 41.9490 11.6020 294° West 368 423 12,800 2,040 Climbing FlightAware
07:16AM 41.9800 11.5070 294° West 370 426 14,400 1,860 Climbing FlightAware
07:16AM 42.0070 11.4230 293° West 377 434 15,500 1,560 Climbing FlightAware
07:17AM 42.0360 11.3340 294° West 384 442 16,500 1,320 Climbing FlightAware
07:18AM 42.0680 11.2330 293° West 395 455 17,400 1,380 Climbing FlightAware
07:18AM 42.0980 11.1410 294° West 403 464 18,500 1,500 Climbing FlightAware
07:19AM 42.1310 11.0380 293° West 405 466 19,600 1,380 Climbing FlightAware
07:20AM 42.1650 10.9320 293° West 412 474 20,600 1,260 Climbing FlightAware
07:21AM 42.1950 10.8360 293° West 419 482 21,400 1,200 Climbing FlightAware
07:21AM 42.2300 10.7280 294° West 423 487 22,300 1,020 Climbing FlightAware
07:22AM 42.2660 10.6320 297° West 439 505 22,900 960 Climbing FlightAware
07:23AM 42.3140 10.5410 306° West 447 514 23,600 1,020 Climbing FlightAware
07:23AM 42.3810 10.4480 314° West 458 527 24,400 1,020 Climbing FlightAware
07:24AM 42.4460 10.3720 319° Northwest 469 540 25,100 1,020 Climbing FlightAware
07:25AM 42.5200 10.2840 319° Northwest 471 542 25,900 960 Climbing FlightAware
07:26AM 42.5850 10.2040 318° Northwest 475 547 26,500 720 Climbing FlightAware
07:26AM 42.6510 10.1230 318° Northwest 481 554 26,900 660 Climbing FlightAware
07:27AM 42.7260 10.0320 318° Northwest 481 554 27,500 720 Climbing FlightAware
07:28AM 42.7920 9.9510 318° Northwest 488 562 28,000 660 Climbing FlightAware
07:28AM 42.8590 9.8680 318° Northwest 491 565 28,400 660 Climbing FlightAware
07:29AM 42.9150 9.7530 304° West 480 552 29,000 720 Climbing FlightAware
07:30AM 42.9490 9.6380 292° West 484 557 29,500 660 Climbing FlightAware
07:30AM 42.9860 9.5110 292° West 487 560 30,000 660 Climbing FlightAware
07:31AM 43.0130 9.4220 293° West 486 559 30,400 840 Climbing FlightAware
07:32AM 43.0570 9.2730 292° West 482 555 31,200 840 Climbing FlightAware
07:33AM 43.0910 9.1580 292° West 481 554 31,700 660 Climbing FlightAware
07:33AM 43.1240 9.0470 292° West 481 554 32,100 540 Climbing FlightAware
07:34AM 43.1630 8.9190 293° West 481 554 32,500 540 Climbing FlightAware
07:35AM 43.1990 8.8040 293° West 481 554 32,900 600 Climbing FlightAware
07:35AM 43.2360 8.6810 292° West 479 551 33,400 720 Climbing FlightAware
07:36AM 43.2670 8.5790 293° West 481 554 33,900 480 Climbing FlightAware
07:37AM 43.3010 8.4630 292° West 485 558 34,000 60 Climbing FlightAware
07:37AM 43.3460 8.3140 293° West 483 556 34,000  Level FlightAware
07:38AM 43.3800 8.2020 293° West 482 555 34,000  Level FlightAware
07:39AM 43.4170 8.0760 292° West 484 557 34,000  Level FlightAware
07:40AM 43.4510 7.9610 292° West 485 558 34,000  Level FlightAware
07:40AM 43.4850 7.8460 292° West 485 558 34,000  Level FlightAware
07:41AM 43.5230 7.7150 292° West 484 557 34,000  Level FlightAware
07:42AM 43.5560 7.6010 292° West 484 557 34,000  Level FlightAware
07:42AM 43.5930 7.4760 292° West 485 558 34,000  Level FlightAware
07:43AM 43.6350 7.3620 297° West 492 566 34,000  Level FlightAware
07:44AM 43.6870 7.2600 305° West 502 578 34,000  Level FlightAware
07:44AM 43.7570 7.1550 313° West 492 566 34,000  Level FlightAware
07:45AM 43.7990 7.0440 298° West 492 566 34,000  Level FlightAware
07:46AM 43.8540 6.9210 302° West 494 568 34,000  Level FlightAware
07:46AM 43.8920 6.8350 302° West 495 570 34,000  Level FlightAware
07:47AM 43.9480 6.7080 302° West 495 570 34,000  Level FlightAware
07:48AM 44.0030 6.5830 301° West 494 568 34,000  Level FlightAware
07:49AM 44.0500 6.4770 302° West 493 567 34,000  Level FlightAware
07:49AM 44.1030 6.3580 302° West 496 571 34,000  Level FlightAware
07:50AM 44.1520 6.2480 302° West 492 566 34,000  Level FlightAware
07:51AM 44.1990 6.1410 302° West 491 565 34,000  Level FlightAware
07:51AM 44.2520 6.0220 302° West 494 568 34,000  Level FlightAware
07:52AM 44.3110 5.9170 308° West 504 580 34,000  Level FlightAware
07:53AM 44.3820 5.8150 314° West 503 579 34,000  Level FlightAware
07:54AM 44.4470 5.7220 314° West 504 580 34,000  Level FlightAware
07:54AM 44.5150 5.6250 315° West 504 580 34,000  Level FlightAware
07:55AM 44.5890 5.5170 314° West 504 580 34,000  Level FlightAware
07:56AM 44.6540 5.4230 314° West 505 581 34,000  Level FlightAware
07:56AM 44.7250 5.3200 314° West 506 582 34,000 120 Level FlightAware
07:57AM 44.7900 5.2250 314° West 507 583 34,200 480 Climbing FlightAware
07:58AM 44.8570 5.1290 315° West 507 583 34,700 600 Climbing FlightAware
07:58AM 44.9310 5.0240 315° West 507 583 35,100 600 Climbing FlightAware
07:59AM 44.9960 4.9310 315° West 502 578 35,600 660 Climbing FlightAware
08:00AM 45.0610 4.8400 315° West 497 572 36,000 240 Climbing FlightAware
08:01AM 45.1340 4.7370 315° West 494 568 36,000  Level FlightAware
08:01AM 45.1880 4.6310 306° West 491 565 36,000  Level FlightAware
08:02AM 45.2440 4.5090 303° West 497 572 36,000  Level FlightAware
08:03AM 45.2950 4.3980 303° West 495 570 36,000  Level FlightAware
08:03AM 45.3500 4.2780 303° West 494 568 36,000  Level FlightAware
08:04AM 45.4000 4.1680 303° West 491 565 36,000  Level FlightAware
08:05AM 45.4480 4.0610 303° West 490 564 36,000  Level FlightAware
08:05AM 45.5050 3.9350 303° West 492 566 36,000  Level FlightAware
08:06AM 45.5540 3.8250 302° West 491 565 36,000  Level FlightAware
08:07AM 45.6070 3.7080 303° West 491 565 36,000  Level FlightAware
08:07AM 45.6490 3.6140 303° West 493 567 36,000  Level FlightAware
08:08AM 45.7050 3.4890 303° West 493 567 36,000  Level FlightAware
08:09AM 45.7580 3.3680 302° West 493 567 36,000  Level FlightAware
08:10AM 45.8100 3.2510 303° West 494 568 36,000  Level FlightAware
08:10AM 45.8630 3.1290 302° West 495 570 36,000  Level FlightAware
08:11AM 45.9100 3.0180 301° West 493 567 36,000  Level FlightAware
08:12AM 45.9460 2.9000 294° West 487 560 36,000  Level FlightAware
08:12AM 45.9750 2.7580 286° West 482 555 36,000  Level FlightAware
08:13AM 45.9860 2.6620 279° West 477 549 36,000  Level FlightAware
08:14AM 45.9860 2.4110 270° West 471 542 36,000  Level FlightAware
08:15AM 45.9850 2.3030 269° West 476 548 36,000  Level FlightAware
08:16AM 45.9830 2.1450 269° West 478 550 36,000  Level FlightAware
08:16AM 45.9810 2.0220 269° West 479 551 36,000  Level FlightAware
08:17AM 45.9790 1.8960 269° West 478 550 36,000  Level FlightAware
08:18AM 45.9760 1.7500 268° West 478 550 36,000  Level FlightAware
08:18AM 45.9740 1.6410 269° West 476 548 36,000  Level FlightAware
08:19AM 45.9700 1.4820 268° West 477 549 36,000  Level FlightAware
08:20AM 45.9660 1.3040 268° West 476 548 36,000  Level FlightAware
08:21AM 45.9630 1.1900 268° West 477 549 36,000  Level FlightAware
08:21AM 45.9590 1.0820 267° West 477 549 36,000  Level FlightAware
08:22AM 45.9550 0.9740 267° West 477 549 36,000  Level FlightAware
08:23AM 45.9510 0.7490 269° West 483 556 36,000  Level FlightAware
08:24AM 45.9450 0.5200 268° West 484 557 36,000  Level FlightAware
08:27AM 45.9617 0.1214 274° West  Level FlightAware Approximate
08:28AM 45.9688 -0.0584 273° West  Level FlightAware Approximate
08:29AM 45.9756 -0.2384 273° West  Level FlightAware Approximate
08:30AM 45.9822 -0.4183 273° West  Level FlightAware Approximate
08:31AM 45.9884 -0.5983 273° West  Level FlightAware Approximate
08:32AM 45.9944 -0.7784 273° West  Level FlightAware Approximate
08:33AM 46.0000 -0.9585 273° West  Level FlightAware Approximate
08:33AM 45.9840 -1.2210 273° West 493 567 36,000  Level FlightAware
08:34AM 46.0054 -1.1386 273° West  Level FlightAware Approximate
08:34AM 46.0070 -1.3790 282° West 494 568 36,000  Level FlightAware
08:35AM 46.0270 -1.5100 282° West 496 571 36,000  Level FlightAware
08:36AM 46.0480 -1.6580 282° West 495 570 36,000  Level FlightAware
08:36AM 46.0670 -1.7860 282° West 495 570 36,000  Level FlightAware
08:37AM 46.0870 -1.9280 282° West 493 567 36,000  Level FlightAware
08:38AM 46.1040 -2.0550 281° West 492 566 36,000  Level FlightAware
08:38AM 46.1230 -2.1870 282° West 492 566 36,000  Level FlightAware
08:39AM 46.1430 -2.3330 281° West 492 566 36,000  Level FlightAware
08:40AM 46.1620 -2.4740 281° West 491 565 36,000  Level FlightAware
08:40AM 46.1800 -2.6050 281° West 490 564 36,000  Level FlightAware
08:41AM 46.1970 -2.7330 281° West 489 563 36,000  Level FlightAware
08:42AM 46.2130 -2.8520 281° West 489 563 36,000  Level FlightAware
08:43AM 46.2330 -3.0000 281° West 489 563 36,000  Level FlightAware
08:43AM 46.2520 -3.1470 281° West 489 563 36,000  Level FlightAware
08:44AM 46.2530 -3.1580 277° West 490 564 36,000  Level FlightAware
08:45AM 46.2840 -3.3920 281° West 491 565 36,000  Level FlightAware
08:46AM 46.3170 -3.6540 280° West 494 568 36,000  Level FlightAware
08:47AM 46.3370 -3.7800 283° West 495 570 36,000  Level FlightAware
08:47AM 46.3640 -3.9330 284° West 494 568 36,000  Level FlightAware
08:48AM 46.3850 -4.0570 284° West 493 567 36,000  Level FlightAware
08:49AM 46.4190 -4.2470 285° West 489 563 36,000  Level FlightAware
08:50AM 46.4420 -4.3820 284° West 490 564 36,000  Level FlightAware
08:50AM 46.4610 -4.4910 284° West 490 564 36,000  Level FlightAware
08:51AM 46.4870 -4.6540 283° West 490 564 36,000  Level FlightAware
08:52AM 46.5040 -4.7630 283° West 490 564 36,000  Level FlightAware
08:53AM 46.5220 -4.8720 284° West 490 564 36,000  Level FlightAware
08:53AM 46.5550 -5.0540 285° West 485 558 36,000  Level FlightAware
08:54AM 46.5780 -5.1910 284° West 486 559 36,000  Level FlightAware
08:55AM 46.6000 -5.3260 283° West 484 557 36,000  Level FlightAware
08:55AM 46.6190 -5.4420 283° West 483 556 36,000  Level FlightAware
08:56AM 46.6460 -5.6100 283° West 482 555 36,000  Level FlightAware
08:57AM 46.6640 -5.7230 283° West 483 556 36,000  Level FlightAware
08:58AM 46.6920 -5.9000 283° West 483 556 36,000  Level FlightAware
08:59AM 46.7160 -6.0590 282° West 480 552 36,000  Level FlightAware
08:59AM 46.7200 -6.0860 282° West 480 552 36,000  Level FlightAware
09:00AM 46.7350 -6.1930 282° West 480 552 36,000  Level FlightAware
09:01AM 46.7510 -6.3010 282° West 480 552 36,000  Level FlightAware
09:01AM 46.7670 -6.4090 282° West 480 552 36,000  Level FlightAware
09:02AM 46.7820 -6.5170 282° West 480 552 36,000  Level FlightAware
09:03AM 46.8020 -6.6520 282° West 480 552 36,000  Level FlightAware
09:04AM 46.8180 -6.7590 282° West 480 552 36,000  Level FlightAware
09:04AM 46.8330 -6.8670 282° West 480 552 36,000  Level FlightAware
09:05AM 46.8490 -6.9750 282° West 480 552 36,000  Level FlightAware
09:06AM 46.8650 -7.0830 282° West 480 552 36,000  Level FlightAware
09:06AM 46.8840 -7.2180 282° West 480 552 36,000  Level FlightAware
09:07AM 46.9000 -7.3270 282° West 480 552 36,000  Level FlightAware
09:08AM 46.9160 -7.4350 282° West 480 552 36,000  Level FlightAware
09:08AM 46.9310 -7.5430 282° West 480 552 36,000 -60 Level FlightAware
09:11AM 47.0115 -7.9163 288° West  Level Estimated
09:12AM 47.0489 -8.0917 287° West  Level Estimated
09:13AM 47.0859 -8.2673 287° West  Level Estimated
09:14AM 47.1227 -8.4432 287° West  Level Estimated
09:15AM 47.1592 -8.6193 287° West  Level Estimated
09:16AM 47.1955 -8.7956 287° West  Level Estimated
09:17AM 47.2315 -8.9722 287° West  Level Estimated
09:18AM 47.2672 -9.1491 287° West  Level Estimated
09:19AM 47.3026 -9.3261 287° West  Level Estimated
09:20AM 47.3378 -9.5034 286° West  Level Estimated
09:21AM 47.3727 -9.6810 286° West  Level Estimated
09:22AM 47.4073 -9.8587 286° West  Level Estimated
09:23AM 47.4416 -10.0367 286° West  Level Estimated
09:24AM 47.4757 -10.2150 286° West  Level Estimated
09:25AM 47.5095 -10.3935 286° West  Level Estimated
09:26AM 47.5430 -10.5722 286° West  Level Estimated
09:27AM 47.5762 -10.7511 285° West  Level Estimated
09:28AM 47.6092 -10.9302 285° West  Level Estimated
09:29AM 47.6419 -11.1096 285° West  Level Estimated
09:30AM 47.6743 -11.2892 285° West  Level Estimated
09:31AM 47.7064 -11.4690 285° West  Level Estimated
09:32AM 47.7383 -11.6491 285° West  Level Estimated
09:33AM 47.7698 -11.8293 285° West  Level Estimated
09:34AM 47.8011 -12.0098 285° West  Level Estimated
09:35AM 47.8321 -12.1905 284° West  Level Estimated
09:36AM 47.8628 -12.3714 284° West  Level Estimated
09:37AM 47.8932 -12.5525 284° West  Level Estimated
09:38AM 47.9233 -12.7339 284° West  Level Estimated
09:39AM 47.9532 -12.9154 284° West  Level Estimated
09:40AM 47.9827 -13.0972 284° West  Level Estimated
09:41AM 48.0120 -13.2792 284° West  Level Estimated
09:42AM 48.0410 -13.4613 283° West  Level Estimated
09:43AM 48.0697 -13.6437 283° West  Level Estimated
09:44AM 48.0981 -13.8263 283° West  Level Estimated
09:45AM 48.1262 -14.0090 283° West  Level Estimated
09:46AM 48.1540 -14.1920 283° West  Level Estimated
09:47AM 48.1816 -14.3752 283° West  Level Estimated
09:48AM 48.2088 -14.5585 283° West  Level Estimated
09:49AM 48.2358 -14.7421 282° West  Level Estimated
09:50AM 48.2625 -14.9259 282° West  Level Estimated
09:51AM 48.2888 -15.1098 282° West  Level Estimated
09:52AM 48.3149 -15.2940 282° West  Level Estimated
09:53AM 48.3407 -15.4783 282° West  Level Estimated
09:54AM 48.3662 -15.6628 282° West  Level Estimated
09:55AM 48.3914 -15.8475 282° West  Level Estimated
09:56AM 48.4163 -16.0323 282° West  Level Estimated
09:57AM 48.4409 -16.2174 281° West  Level Estimated
09:58AM 48.4652 -16.4026 281° West  Level Estimated
09:59AM 48.4892 -16.5880 281° West  Level Estimated
10:00AM 48.5129 -16.7736 281° West  Level Estimated
10:01AM 48.5363 -16.9594 281° West  Level Estimated
10:02AM 48.5594 -17.1453 281° West  Level Estimated
10:03AM 48.5822 -17.3314 281° West  Level Estimated
10:04AM 48.6047 -17.5177 280° West  Level Estimated
10:05AM 48.6269 -17.7041 280° West  Level Estimated
10:06AM 48.6488 -17.8907 280° West  Level Estimated
10:07AM 48.6705 -18.0774 280° West  Level Estimated
10:08AM 48.6918 -18.2643 280° West  Level Estimated
10:09AM 48.7128 -18.4514 280° West  Level Estimated
10:10AM 48.7335 -18.6386 280° West  Level Estimated
10:11AM 48.7539 -18.8260 279° West  Level Estimated
10:12AM 48.7740 -19.0135 279° West  Level Estimated
10:13AM 48.7938 -19.2012 279° West  Level Estimated
10:14AM 48.8132 -19.3890 279° West  Level Estimated
10:14AM 47.0000 -20.0000 274° West 454 522 35,000  Level ETMS Enhanced Traffic Management System
10:15AM 48.8324 -19.5770 279° West  Level Estimated
10:16AM 48.8513 -19.7651 279° West  Level Estimated
10:17AM 48.8699 -19.9534 279° West  Level Estimated
10:18AM 48.8881 -20.1418 278° West  Level Estimated
10:19AM 48.9061 -20.3303 278° West  Level Estimated
10:20AM 47.0491 -21.2940 273° West 454 522 35,000  Level FlightAware Transoceanic
10:21AM 47.0550 -21.4791 273° West 454 522 35,000  Level FlightAware Transoceanic
10:22AM 47.0605 -21.6641 272° West 454 522 35,000  Level FlightAware Transoceanic
10:23AM 47.0657 -21.8493 272° West 454 522 35,000  Level FlightAware Transoceanic
10:24AM 47.0706 -22.0344 272° West 454 522 35,000  Level FlightAware Transoceanic
10:25AM 47.0753 -22.2196 272° West 454 522 35,000  Level FlightAware Transoceanic
10:26AM 47.0796 -22.4048 272° West 454 522 35,000  Level FlightAware Transoceanic
10:27AM 47.0837 -22.5901 272° West 454 522 35,000  Level FlightAware Transoceanic
10:28AM 47.0874 -22.7754 272° West 454 522 35,000  Level FlightAware Transoceanic
10:29AM 47.0908 -22.9606 271° West 454 522 35,000  Level FlightAware Transoceanic
10:30AM 47.0940 -23.1460 271° West 454 522 35,000  Level FlightAware Transoceanic
10:31AM 47.0968 -23.3313 271° West 454 522 35,000  Level FlightAware Transoceanic
10:32AM 47.0994 -23.5167 271° West 454 522 35,000  Level FlightAware Transoceanic
10:33AM 47.1016 -23.7020 271° West 454 522 35,000  Level FlightAware Transoceanic
10:34AM 47.1035 -23.8874 271° West 454 522 35,000  Level FlightAware Transoceanic
10:35AM 47.1052 -24.0728 271° West 454 522 35,000  Level FlightAware Transoceanic
10:36AM 47.1065 -24.2583 271° West 454 522 35,000  Level FlightAware Transoceanic
10:37AM 47.1076 -24.4437 270° West 454 522 35,000  Level FlightAware Transoceanic
10:38AM 47.1083 -24.6291 270° West 454 522 35,000  Level FlightAware Transoceanic
10:39AM 47.1088 -24.8146 270° West 454 522 35,000  Level FlightAware Transoceanic
10:40AM 47.1089 -25.0000 270° West 454 522 35,000  Level FlightAware Transoceanic
10:41AM 47.1088 -25.1854 270° West 454 522 35,000  Level FlightAware Transoceanic
10:42AM 47.1083 -25.3709 270° West 454 522 35,000  Level FlightAware Transoceanic
10:43AM 47.1076 -25.5563 270° West 454 522 35,000  Level FlightAware Transoceanic
10:44AM 47.1065 -25.7417 269° West 454 522 35,000  Level FlightAware Transoceanic
10:45AM 47.1052 -25.9272 269° West 454 522 35,000  Level FlightAware Transoceanic
10:46AM 47.1035 -26.1126 269° West 454 522 35,000  Level FlightAware Transoceanic
10:47AM 47.1016 -26.2980 269° West 454 522 35,000  Level FlightAware Transoceanic
10:48AM 47.0994 -26.4833 269° West 454 522 35,000  Level FlightAware Transoceanic
10:49AM 47.0968 -26.6687 269° West 454 522 35,000  Level FlightAware Transoceanic
10:50AM 47.0940 -26.8540 269° West 454 522 35,000  Level FlightAware Transoceanic
10:51AM 47.0908 -27.0394 269° West 454 522 35,000  Level FlightAware Transoceanic
10:52AM 47.0874 -27.2246 268° West 454 522 35,000  Level FlightAware Transoceanic
10:53AM 47.0837 -27.4099 268° West 454 522 35,000  Level FlightAware Transoceanic
10:54AM 47.0796 -27.5952 268° West 454 522 35,000  Level FlightAware Transoceanic
10:55AM 47.0753 -27.7804 268° West 454 522 35,000  Level FlightAware Transoceanic
10:56AM 47.0706 -27.9656 268° West 454 522 35,000  Level FlightAware Transoceanic
10:57AM 47.0657 -28.1507 268° West 454 522 35,000  Level FlightAware Transoceanic
10:58AM 47.0605 -28.3359 268° West 454 522 35,000  Level FlightAware Transoceanic
10:59AM 47.0550 -28.5209 267° West 454 522 35,000  Level FlightAware Transoceanic
11:00AM 47.0491 -28.7060 267° West 454 522 35,000  Level FlightAware Transoceanic
11:01AM 47.0430 -28.8910 267° West 454 522 35,000  Level FlightAware Transoceanic
11:02AM 47.0366 -29.0759 267° West 454 522 35,000  Level FlightAware Transoceanic
11:03AM 47.0299 -29.2609 267° West 454 522 35,000  Level FlightAware Transoceanic
11:04AM 47.0228 -29.4457 267° West 454 522 35,000  Level FlightAware Transoceanic
11:05AM 47.0155 -29.6305 267° West 454 522 35,000  Level FlightAware Transoceanic
11:06AM 47.0079 -29.8153 266° West 454 522 35,000  Level FlightAware Transoceanic
11:07AM 47.0184 -29.9991 275° West  Level Estimated
11:08AM 47.0285 -30.1829 275° West  Level Estimated
11:09AM 47.0384 -30.3668 275° West  Level Estimated
11:10AM 47.0480 -30.5508 274° West  Level Estimated
11:11AM 47.0573 -30.7348 274° West  Level Estimated
11:12AM 47.0663 -30.9189 274° West  Level Estimated
11:13AM 47.0750 -31.1031 274° West  Level Estimated
11:14AM 47.0834 -31.2873 274° West  Level Estimated
11:15AM 47.0915 -31.4716 274° West  Level Estimated
11:16AM 47.0993 -31.6559 274° West  Level Estimated
11:17AM 47.1068 -31.8403 273° West  Level Estimated
11:18AM 47.1140 -32.0247 273° West  Level Estimated
11:19AM 47.1209 -32.2092 273° West  Level Estimated
11:20AM 47.1276 -32.3937 273° West  Level Estimated
11:21AM 47.1339 -32.5783 273° West  Level Estimated
11:22AM 47.1399 -32.7630 273° West  Level Estimated
11:23AM 47.1457 -32.9476 273° West  Level Estimated
11:24AM 47.1511 -33.1323 273° West  Level Estimated
11:25AM 47.1563 -33.3171 272° West  Level Estimated
11:26AM 47.1611 -33.5018 272° West  Level Estimated
11:27AM 47.1657 -33.6866 272° West  Level Estimated
11:28AM 47.1699 -33.8715 272° West  Level Estimated
11:29AM 47.1739 -34.0563 272° West  Level Estimated
11:30AM 47.1775 -34.2412 272° West  Level Estimated
11:31AM 47.1809 -34.4261 272° West  Level Estimated
11:32AM 47.1839 -34.6111 271° West  Level Estimated
11:33AM 47.1867 -34.7960 271° West  Level Estimated
11:34AM 47.1892 -34.9810 271° West  Level Estimated
11:35AM 47.1913 -35.1660 271° West  Level Estimated
11:36AM 47.1932 -35.3510 271° West  Level Estimated
11:37AM 47.1948 -35.5360 271° West  Level Estimated
11:38AM 47.1960 -35.7211 271° West  Level Estimated
11:39AM 47.1970 -35.9061 271° West  Level Estimated
11:40AM 47.1977 -36.0911 270° West  Level Estimated
11:41AM 47.1981 -36.2762 270° West  Level Estimated
11:42AM 47.1982 -36.4612 270° West  Level Estimated
11:43AM 47.1980 -36.6463 270° West  Level Estimated
11:44AM 47.1974 -36.8313 270° West  Level Estimated
11:45AM 47.1966 -37.0164 270° West  Level Estimated
11:46AM 47.1955 -37.2014 270° West  Level Estimated
11:47AM 47.1941 -37.3864 269° West  Level Estimated
11:48AM 47.1924 -37.5714 269° West  Level Estimated
11:49AM 47.1904 -37.7564 269° West  Level Estimated
11:50AM 47.1881 -37.9414 269° West  Level Estimated
11:51AM 47.1855 -38.1264 269° West  Level Estimated
11:52AM 47.1826 -38.3113 269° West  Level Estimated
11:53AM 47.1794 -38.4963 269° West  Level Estimated
11:54AM 47.1759 -38.6811 268° West  Level Estimated
11:55AM 47.1721 -38.8660 268° West  Level Estimated
11:56AM 47.1681 -39.0509 268° West  Level Estimated
11:57AM 47.1637 -39.2357 268° West  Level Estimated
11:58AM 47.1590 -39.4205 268° West  Level Estimated
11:59AM 47.1540 -39.6053 268° West  Level Estimated
12:00PM 47.1488 -39.7900 268° West  Level Estimated
12:01PM 47.1432 -39.9747 268° West  Level Estimated
12:02PM 47.1373 -40.1593 267° West  Level Estimated
12:03PM 47.1311 -40.3439 267° West  Level Estimated
12:04PM 47.1247 -40.5285 267° West  Level Estimated
12:05PM 47.1179 -40.7130 267° West  Level Estimated
12:06PM 47.1109 -40.8974 267° West  Level Estimated
12:07PM 47.1035 -41.0818 267° West  Level Estimated
12:08PM 47.0959 -41.2662 267° West  Level Estimated
12:09PM 47.0879 -41.4505 266° West  Level Estimated
12:10PM 47.0797 -41.6348 266° West  Level Estimated
12:11PM 47.0712 -41.8189 266° West  Level Estimated
12:12PM 47.0623 -42.0031 266° West  Level Estimated
12:13PM 47.0532 -42.1871 266° West  Level Estimated
12:14PM 47.0438 -42.3712 266° West  Level Estimated
12:15PM 47.0341 -42.5551 266° West  Level Estimated
12:16PM 47.0241 -42.7390 266° West  Level Estimated
12:17PM 47.0138 -42.9228 265° West  Level Estimated
12:18PM 47.0032 -43.1065 265° West  Level Estimated
12:19PM 46.9923 -43.2901 265° West  Level Estimated
12:20PM 46.9811 -43.4737 265° West  Level Estimated
12:21PM 46.9697 -43.6572 265° West  Level Estimated
12:22PM 46.9579 -43.8407 265° West  Level Estimated
12:23PM 46.9458 -44.0240 265° West  Level Estimated
12:24PM 46.9335 -44.2073 264° West  Level Estimated
12:25PM 46.9208 -44.3904 264° West  Level Estimated
12:26PM 46.9079 -44.5735 264° West  Level Estimated
12:27PM 46.8946 -44.7565 264° West  Level Estimated
12:28PM 46.8811 -44.9394 264° West  Level Estimated
12:29PM 46.8673 -45.1222 264° West  Level Estimated
12:30PM 46.8532 -45.3050 264° West  Level Estimated
12:31PM 46.8388 -45.4876 263° West  Level Estimated
12:32PM 46.8242 -45.6701 263° West  Level Estimated
12:33PM 46.8092 -45.8525 263° West  Level Estimated
12:34PM 46.7939 -46.0349 263° West  Level Estimated
12:35PM 46.7784 -46.2171 263° West  Level Estimated
12:36PM 46.7625 -46.3992 263° West  Level Estimated
12:37PM 46.7464 -46.5812 263° West  Level Estimated
12:38PM 46.7300 -46.7631 263° West  Level Estimated
12:39PM 46.7133 -46.9449 262° West  Level Estimated
12:40PM 46.6963 -47.1265 262° West  Level Estimated
12:41PM 46.6790 -47.3081 262° West  Level Estimated
12:42PM 46.6614 -47.4895 262° West  Level Estimated
12:43PM 46.6436 -47.6708 262° West  Level Estimated
12:44PM 46.6254 -47.8520 262° West  Level Estimated
12:45PM 46.6070 -48.0331 262° West  Level Estimated
12:46PM 46.5883 -48.2140 262° West  Level Estimated
12:47PM 46.5693 -48.3949 261° West  Level Estimated
12:48PM 46.5500 -48.5755 261° West  Level Estimated
12:48PM 44.6667 -47.2000 253° West 460 529 35,000  Level New York Oceanic (ODAPS)
12:49PM 46.5304 -48.7561 261° West  Level Estimated
12:50PM 46.5106 -48.9365 261° West  Level Estimated
12:51PM 46.4905 -49.1168 261° West  Level Estimated
12:52PM 46.4700 -49.2970 261° West  Level Estimated
12:53PM 46.4493 -49.4770 261° West  Level Estimated
12:54PM 44.4392 -48.1955 252° West 460 529 35,000  Level FlightAware Transoceanic
12:55PM 44.4005 -48.3606 252° West 460 529 35,000  Level FlightAware Transoceanic
12:56PM 44.3615 -48.5256 252° West 460 529 35,000  Level FlightAware Transoceanic
12:57PM 44.3222 -48.6903 252° West 460 529 35,000  Level FlightAware Transoceanic
12:58PM 44.2828 -48.8548 251° West 460 529 35,000  Level FlightAware Transoceanic
12:59PM 44.2431 -49.0191 251° West 460 529 35,000  Level FlightAware Transoceanic
01:00PM 44.2032 -49.1831 251° West 460 529 35,000  Level FlightAware Transoceanic
01:01PM 44.1630 -49.3469 251° West 460 529 35,000  Level FlightAware Transoceanic
01:02PM 44.1226 -49.5105 251° West 460 529 35,000  Level FlightAware Transoceanic
01:02PM 44.1000 -49.5667 252° West 440 506 35,000  Level New York Oceanic (ODAPS)
01:03PM 44.0820 -49.6739 251° West 460 529 35,000  Level FlightAware Transoceanic
01:04PM 44.0411 -49.8371 251° West 460 529 35,000  Level FlightAware Transoceanic
01:05PM 44.0000 -50.0000 263° West 460 529 35,000  Level FlightAware Transoceanic
01:05PM 44.0000 -50.0000 263° West 451 519 35,000  Level New York Oceanic (ODAPS)
01:06PM 43.9855 -50.1734 263° West 460 529 35,000  Level FlightAware Transoceanic
01:07PM 43.9707 -50.3467 263° West 460 529 35,000  Level FlightAware Transoceanic
01:08PM 43.9557 -50.5199 263° West 440 506 35,000  Level FlightAware Transoceanic
01:09PM 43.9404 -50.6930 263° West 440 506 35,000  Level FlightAware Transoceanic
01:10PM 43.9249 -50.8661 263° West 440 506 35,000  Level FlightAware Transoceanic
01:11PM 43.9091 -51.0390 263° West 451 519 35,000  Level FlightAware Transoceanic
01:12PM 43.8930 -51.2119 263° West 451 519 35,000  Level FlightAware Transoceanic
01:13PM 43.8767 -51.3846 262° West 451 519 35,000  Level FlightAware Transoceanic
01:14PM 43.8601 -51.5573 262° West 451 519 35,000  Level FlightAware Transoceanic
01:15PM 43.8433 -51.7299 262° West 451 519 35,000  Level FlightAware Transoceanic
01:16PM 43.8262 -51.9023 262° West 451 519 35,000  Level FlightAware Transoceanic
01:16PM 43.8167 -51.9667 262° West 444 511 35,000  Level New York Oceanic (ODAPS)
01:17PM 43.8088 -52.0747 262° West 451 519 35,000  Level FlightAware Transoceanic
01:18PM 43.7912 -52.2470 262° West 451 519 35,000  Level FlightAware Transoceanic
01:19PM 43.7733 -52.4191 262° West 451 519 35,000  Level FlightAware Transoceanic
01:19PM 43.7833 -52.4000 262° West 445 512 35,000  Level New York Oceanic (ODAPS)
01:20PM 43.7552 -52.5912 262° West 451 519 35,000  Level FlightAware Transoceanic
01:21PM 43.7368 -52.7632 262° West 451 519 35,000  Level FlightAware Transoceanic
01:22PM 43.7098 -52.9881 261° West 444 511 35,000  Level FlightAware Transoceanic
01:23PM 43.6911 -53.1580 261° West 444 511 35,000  Level FlightAware Transoceanic
01:24PM 43.6721 -53.3277 261° West 444 511 35,000  Level FlightAware Transoceanic
01:25PM 43.6689 -53.4345 261° West 445 512 35,000  Level FlightAware Transoceanic
01:26PM 43.6489 -53.6066 261° West 445 512 35,000  Level FlightAware Transoceanic
01:27PM 43.6287 -53.7785 261° West 445 512 35,000  Level FlightAware Transoceanic
01:28PM 43.6082 -53.9503 261° West 445 512 35,000  Level FlightAware Transoceanic
01:29PM 43.5874 -54.1220 260° West 445 512 35,000  Level FlightAware Transoceanic
01:30PM 43.5664 -54.2935 260° West 445 512 35,000  Level FlightAware Transoceanic
01:30PM 43.5667 -54.3167 260° West 445 512 35,000  Level New York Oceanic (ODAPS)
01:31PM 43.5452 -54.4650 260° West 445 512 35,000  Level FlightAware Transoceanic
01:32PM 43.5237 -54.6363 260° West 445 512 35,000  Level FlightAware Transoceanic
01:33PM 43.5019 -54.8075 260° West 445 512 35,000  Level FlightAware Transoceanic
01:34PM 43.4799 -54.9786 260° West 445 512 35,000  Level FlightAware Transoceanic
01:35PM 43.4576 -55.1495 260° West 445 512 35,000  Level FlightAware Transoceanic
01:36PM 43.4350 -55.3368 260° West 445 512 35,000  Level FlightAware Transoceanic
01:37PM 43.4122 -55.5064 259° West 445 512 35,000  Level FlightAware Transoceanic
01:38PM 43.3892 -55.6759 259° West 445 512 35,000  Level FlightAware Transoceanic
01:39PM 43.3658 -55.8452 259° West 445 512 35,000  Level FlightAware Transoceanic
01:40PM 43.3423 -56.0144 259° West 445 512 35,000  Level FlightAware Transoceanic
01:41PM 43.3185 -56.1835 259° West 445 512 35,000  Level FlightAware Transoceanic
01:42PM 43.2944 -56.3524 259° West 445 512 35,000  Level FlightAware Transoceanic
01:43PM 43.2701 -56.5212 259° West 445 512 35,000  Level FlightAware Transoceanic
01:44PM 43.2455 -56.6899 259° West 445 512 35,000  Level FlightAware Transoceanic
01:44PM 43.2500 -56.6333 259° West 442 509 35,000  Level New York Oceanic (ODAPS)
01:45PM 43.2207 -56.8584 259° West 445 512 35,000  Level FlightAware Transoceanic
01:46PM 43.1956 -57.0268 258° West 445 512 35,000  Level FlightAware Transoceanic
01:47PM 43.1703 -57.1951 258° West 445 512 35,000  Level FlightAware Transoceanic
01:47PM 43.1667 -57.1833 268° West 450 518 35,000  Level Moncton Center
01:48PM 43.1448 -57.3632 258° West 445 512 35,000  Level FlightAware Transoceanic
01:48PM 43.1167 -57.3667 250° West 440 506 35,000  Level Moncton Center
01:49PM 43.1190 -57.5312 258° West 445 512 35,000  Level FlightAware Transoceanic
01:49PM 43.1000 -57.5333 262° West 460 529 35,000  Level Moncton Center
01:50PM 43.0929 -57.6990 258° West 445 512 35,000  Level FlightAware Transoceanic
01:50PM 43.0833 -57.7000 262° West 450 518 35,000  Level Moncton Center
01:51PM 43.0667 -57.8667 268° West 442 509 35,000  Level FlightAware Transoceanic
01:51PM 43.0500 -57.8500 253° West 450 518 35,000  Level Moncton Center
01:52PM 43.0630 -58.0309 268° West 442 509 35,000  Level FlightAware Transoceanic
01:52PM 43.0500 -58.0333 270° West 450 518 35,000  Level Moncton Center
01:53PM 43.0667 -58.2000 278° West 460 529 35,000  Level Moncton Center
01:54PM 43.0500 -58.3667 262° West 450 518 35,000  Level Moncton Center
01:55PM 43.0500 -58.5500 270° West 450 518 35,000  Level Moncton Center
01:56PM 43.0333 -58.7000 261° West 450 518 35,000  Level Moncton Center
01:57PM 43.0333 -58.8833 270° West 450 518 35,000  Level Moncton Center
01:58PM 43.0167 -59.0500 262° West 450 518 35,000  Level Moncton Center
01:59PM 43.0167 -59.2333 270° West 450 518 35,000  Level Moncton Center
02:00PM 43.0000 -59.4000 262° West 460 529 35,000  Level Moncton Center
02:01PM 43.0167 -59.5833 277° West 460 529 35,000  Level Moncton Center
02:02PM 43.0000 -59.7667 263° West 450 518 35,000  Level Moncton Center
02:03PM 43.0000 -59.9167 270° West 460 529 35,000  Level Moncton Center
02:04PM 42.9833 -60.1000 263° West 450 518 35,000  Level Moncton Center
02:05PM 42.9667 -60.2667 262° West 450 518 35,000  Level Moncton Center
02:06PM 42.9833 -60.4167 279° West 450 518 35,000  Level Moncton Center
02:07PM 42.9667 -60.6000 263° West 450 518 35,000  Level Moncton Center
02:08PM 42.9500 -60.7667 262° West 450 518 35,000  Level Moncton Center
02:09PM 42.9667 -60.9500 277° West 450 518 35,000  Level Moncton Center
02:10PM 42.9500 -61.1167 262° West 450 518 35,000  Level Moncton Center
02:11PM 42.9500 -61.3000 270° West 450 518 35,000  Level Moncton Center
02:12PM 42.9500 -61.4500 270° West 450 518 35,000  Level Moncton Center
02:13PM 42.9333 -61.6167 262° West 450 518 35,000  Level Moncton Center
02:14PM 42.9333 -61.8000 270° West 440 506 35,000  Level Moncton Center
02:15PM 42.9167 -61.9500 261° West 450 518 35,000  Level Moncton Center
02:16PM 42.9333 -62.1333 277° West 450 518 35,000  Level Moncton Center
02:17PM 42.9167 -62.3167 263° West 450 518 35,000  Level Moncton Center
02:18PM 42.9000 -62.4833 262° West 450 518 35,000  Level Moncton Center
02:19PM 42.9000 -62.6667 270° West 450 518 35,000  Level Moncton Center
02:20PM 42.8833 -62.8167 261° West 450 518 35,000  Level Moncton Center
02:21PM 42.8833 -63.0000 270° West 450 518 35,000  Level Moncton Center
02:22PM 42.8833 -63.1667 270° West 450 518 35,000  Level Moncton Center
02:23PM 42.8667 -63.3333 262° West 450 518 35,000  Level Moncton Center
02:24PM 42.8667 -63.5167 270° West 450 518 35,000  Level Moncton Center
02:25PM 42.8500 -63.6667 261° West 450 518 35,000  Level Moncton Center
02:26PM 42.8333 -63.8500 263° West 440 506 35,000  Level Moncton Center
02:27PM 42.8333 -64.0167 270° West 450 518 35,000  Level Moncton Center
02:28PM 42.8167 -64.2000 263° West 450 518 35,000  Level Moncton Center
02:29PM 42.8167 -64.3500 270° West 450 518 35,000  Level Moncton Center
02:30PM 42.8000 -64.5167 262° West 450 518 35,000  Level Moncton Center
02:31PM 42.7833 -64.7000 263° West 440 506 35,000  Level Moncton Center
02:32PM 42.7833 -64.8500 270° West 450 518 35,000  Level Moncton Center
02:38PM 42.7190 -65.9080 270° West 458 527 35,000  Level FlightAware
02:39PM 42.7020 -66.1390 264° West 457 526 35,000  Level FlightAware
02:41PM 42.6850 -66.3620 264° West 462 532 35,000  Level FlightAware
02:42PM 42.6690 -66.5620 264° West 460 529 35,000  Level FlightAware
02:42PM 42.6610 -66.6550 263° West 460 529 35,000  Level FlightAware
02:43PM 42.6520 -66.7680 264° West 460 529 35,000  Level FlightAware
02:44PM 42.6430 -66.8660 263° West 460 529 35,000  Level FlightAware
02:45PM 42.6320 -66.9880 263° West 460 529 35,000  Level FlightAware
02:45PM 42.6230 -67.0860 263° West 460 529 35,000  Level FlightAware
02:46PM 42.6140 -67.1830 263° West 460 529 35,000  Level FlightAware
02:47PM 42.6050 -67.2810 263° West 460 529 35,000  Level FlightAware
02:47PM 42.5970 -67.3780 264° West 460 529 35,000  Level FlightAware
02:48PM 42.5860 -67.5000 263° West 460 529 35,000  Level FlightAware
02:49PM 42.5770 -67.5980 263° West 460 529 35,000  Level FlightAware
02:49PM 42.5680 -67.6950 263° West 460 529 35,000  Level FlightAware
02:52PM 42.4330 -68.2380 252° West 464 534 35,000  Level FlightAware
02:52PM 42.4210 -68.3110 257° West 464 534 35,000  Level FlightAware
02:56PM 42.3210 -68.9020 257° West 461 531 35,000  Level FlightAware
02:56PM 42.3040 -68.9960 256° West 461 531 35,000  Level FlightAware
02:57PM 42.2780 -69.1470 257° West 460 529 35,000  Level FlightAware
03:01PM 42.1500 -69.8540 257° West 466 536 35,000  Level FlightAware
03:02PM 42.1310 -69.9620 257° West 469 540 35,000  Level FlightAware
03:03PM 42.1090 -70.0800 256° West 468 539 35,000  Level FlightAware
03:03PM 42.0850 -70.2060 256° West 467 537 35,000  Level FlightAware
03:04PM 42.0630 -70.3250 256° West 466 536 35,000  Level FlightAware
03:05PM 42.0330 -70.4300 249° West 472 543 35,000  Level FlightAware
03:05PM 41.9880 -70.5220 237° Southwest 475 547 35,000  Level FlightAware
03:06PM 41.9280 -70.6430 236° Southwest 477 549 35,000  Level FlightAware
03:07PM 41.8760 -70.7480 236° Southwest 477 549 35,000 -180 Level FlightAware
03:07PM 41.8250 -70.8520 237° Southwest 478 550 34,800 -600 Descending FlightAware
03:08PM 41.7820 -70.9380 236° Southwest 478 550 34,200 -1,020 Descending FlightAware
03:09PM 41.7210 -71.0590 236° Southwest 474 545 33,400 -1,020 Descending FlightAware
03:10PM 41.6770 -71.1480 237° Southwest 477 549 32,800 -1,020 Descending FlightAware
03:10PM 41.6210 -71.2590 236° Southwest 477 549 32,000 -1,020 Descending FlightAware
03:11PM 41.5670 -71.3660 236° Southwest 479 551 31,400 -1,200 Descending FlightAware
03:12PM 41.5170 -71.4630 235° Southwest 473 544 30,400 -1,800 Descending FlightAware
03:12PM 41.4600 -71.5760 236° Southwest 466 536 28,900 -1,980 Descending FlightAware
03:13PM 41.4160 -71.6620 236° Southwest 462 532 27,600 -2,040 Descending FlightAware
03:14PM 41.3730 -71.7460 236° Southwest 457 526 26,400 -1,980 Descending FlightAware
03:14PM 41.3150 -71.8580 235° Southwest 452 520 24,800 -1,980 Descending FlightAware
03:15PM 41.2830 -71.9110 231° Southwest 430 495 23,100 -2,160 Descending FlightAware
03:16PM 41.1990 -72.1190 242° Southwest 447 514 20,900 -1,320 Descending FlightAware
03:17PM 41.1660 -72.2020 242° Southwest 447 514 20,900 -2,820 Level FlightAware
03:18PM 41.1600 -72.2200 246° West 441 507 17,200 -2,640 Descending FlightAware
03:18PM 41.1220 -72.3140 242° Southwest 441 507 17,200  Level FlightAware
03:19PM 41.0900 -72.3950 242° Southwest 441 507 17,200  Level FlightAware
03:20PM 41.0570 -72.4760 242° Southwest 441 507 17,200  Level FlightAware
03:21PM 41.0160 -72.5780 242° Southwest 441 507 17,200  Level FlightAware
03:21PM 40.9840 -72.6590 242° Southwest 441 507 17,200 -2,400 Level FlightAware
03:23PM 40.8570 -72.8820 233° Southwest 301 346 11,600 -2,640 Descending FlightAware
03:24PM 40.8190 -72.9350 227° Southwest 302 348 11,100 -1,080 Descending FlightAware
03:24PM 40.7820 -72.9920 229° Southwest 297 342 10,200 -1,320 Descending FlightAware
03:25PM 40.7660 -73.0400 246° West 292 336 9,600 -1,320 Descending FlightAware
03:25PM 40.7550 -73.0910 254° West 292 336 8,900 -1,200 Descending FlightAware
03:26PM 40.7460 -73.1360 255° West 286 329 8,500 -1,140 Descending FlightAware
03:26PM 40.7370 -73.1860 257° West 282 325 7,900 -1,380 Descending FlightAware
03:26PM 40.7320 -73.2100 255° West 284 327 7,500 -1,680 Descending FlightAware
03:27PM 40.7240 -73.2540 257° West 287 330 6,800 -1,560 Descending FlightAware
03:27PM 40.7160 -73.3060 259° West 287 330 6,100 -1,140 Descending FlightAware
03:28PM 40.7290 -73.3550 289° West 275 316 5,700 -1,020 Descending FlightAware
03:28PM 40.7420 -73.3900 296° West 272 313 5,200 -1,140 Descending FlightAware
03:29PM 40.7580 -73.4350 295° West 264 304 4,700 -900 Descending FlightAware
03:29PM 40.7690 -73.4740 290° West 251 289 4,400 -1,800 Descending FlightAware
03:30PM 40.7740 -73.5190 278° West 259 298 3,100 -2,400 Descending FlightAware
03:30PM 40.7760 -73.5420 277° West 261 300 2,600 -1,680 Descending FlightAware
03:30PM 40.7700 -73.5790 258° West 243 280 2,000 -1,200 Descending FlightAware
03:31PM 40.7640 -73.5980 247° West 230 265 1,800 -420 Descending FlightAware
03:31PM 40.7520 -73.6340 246° West 203 234 1,700 -120 Descending FlightAware
03:31PM 40.7370 -73.6560 228° Southwest 195 224 1,700 -120 Level FlightAware
03:32PM 40.7180 -73.6780 221° Southwest 172 198 1,600 -600 Descending FlightAware
03:32PM 40.7000 -73.6980 220° Southwest 159 183 1,100 -900 Descending FlightAware
03:33PM 40.6870 -73.7120 219° Southwest 148 170 800 -780 Descending FlightAware
03:33PM 40.6730 -73.7330 229° Southwest 147 169 400 -840 Descending FlightAware
03:34PM 40.6650 -73.7400 214° Southwest 145 167 200 -840 Descending FlightAware
03:34PM 40.6570 -73.7460 210° Southwest 144 166 -840 Descending FlightAware
03:34PM 40.6450 -73.7550 210° Southwest 145 167  Level FlightAware